PATL/TLJ METAR and TAF weather

Enter ICAO airport designator
Station Type Date Time Source
PATL METAR 2020/04/07 07:55 UTC NOAA

PATL 070755Z AUTO 02003KT 10SM CLR M12/M16 A3003 RMK AO2 SLP200 T11221156


Station Type Date Time Source
PATL Decoded METAR 2020/04/07 07:55 UTC NOAA

Takotna, Tatalina LRRS Airport, AK, United States (PATL) 62-54N 155-59W
Apr 07, 2020 - 03:55 AM EDT / 2020.04.07 0755 UTC
Wind: from the NNE (020 degrees) at 3 MPH (3 KT):0
Visibility: 10 mile(s):0
Sky conditions: clear
Temperature: 10.0 F (-12.2 C)
Dew Point: 3.9 F (-15.6 C)
Relative Humidity: 75%
Pressure (altimeter): 30.03 in. Hg (1016 hPa)
ob: PATL 070755Z AUTO 02003KT 10SM CLR M12/M16 A3003 RMK AO2 SLP200 T11221156
cycle: 8

Station Type Date Time Source
PATL TAF 2012/01/12 14:06 UTC NOAA

TAF PATL 1214/1320 VRB06KT 9999 FEW050 SCT110 QNH2998INS TM26/1300Z TM32/1315Z

Example: see airport list